Sign-in with your pilot id or email, or register

ICAO: RJAA Name / Country: Narita International Airport / Japan
Latitude: 35.7647 Longitude: 140.386
Total Arrivals:
Strict Standards: Non-static method AirportData::getarrflights() should not be called statically, assuming $this from incompatible context in /var/www/customers/vh-7192/web/home/phpvms/core/templates/airport_info.tpl on line 18
0
Total Departures:
Strict Standards: Non-static method AirportData::getdeptflights() should not be called statically, assuming $this from incompatible context in /var/www/customers/vh-7192/web/home/phpvms/core/templates/airport_info.tpl on line 21
1
Latest Arrival: (-) Latest Departure: MTA5PM (RJAA-RCTP) Tibor Berces
Metar: RJAA 172230Z 02010KT 9999 FEW013 SCT110 22/20 Q1011 NOSIG
More info

Charts for RJAA


NOTAM


Warning: file_get_contents(http://api.vateud.net/notams/RJAA.json): failed to open stream: Redirection limit reached, aborting in /var/www/customers/vh-7192/web/home/phpvms/core/common/NOTAMSData.class.php on line 18

Warning: Invalid argument supplied for foreach() in /var/www/customers/vh-7192/web/home/phpvms/core/common/NOTAMSData.class.php on line 22

Narita International Airport